FDX2447 KMIA-MKJS
Flight info
| Callsign | FDX2447 |
|---|---|
| Flight time | N/A |
| Altitude | 39000 |
| Route | GWAVA2 URSUS UP406 BILSI DCT NIBEO UL341 ENARI OMAXI7 |
| Aircraft | B772/H-SDE2E3FGHIJ5LORVWXY/LB1D1 |
Departure
| Time | N/A |
|---|---|
| Airport | Miami International Airport (KMIA) |
Arrival
| Time | 2026-04-30 18:32 |
|---|---|
| Airport | Sangster International Airport (MKJS) |
| Time | Latitude | Longitude | Altitude | Speed | Heading |
|---|---|---|---|---|---|
| 2026-04-30 17:39 | 23.73675 | -79.01760 | 38952 ft | 503 kts | 169° |
| 2026-04-30 17:42 | 23.39213 | -78.94965 | 38961 ft | 502 kts | 169° |
| 2026-04-30 17:43 | 23.21918 | -78.91569 | 38949 ft | 504 kts | 169° |
| 2026-04-30 17:44 | 23.01044 | -78.89516 | 38963 ft | 501 kts | 176° |
| 2026-04-30 17:47 | 22.69609 | -78.86867 | 38953 ft | 500 kts | 176° |
| 2026-04-30 17:48 | 22.45380 | -78.84828 | 38943 ft | 496 kts | 176° |
| 2026-04-30 17:50 | 22.17832 | -78.82519 | 38940 ft | 495 kts | 177° |
| 2026-04-30 17:52 | 21.97292 | -78.80803 | 38946 ft | 490 kts | 176° |
| 2026-04-30 17:54 | 21.66618 | -78.78249 | 38935 ft | 490 kts | 178° |
| 2026-04-30 17:56 | 21.39418 | -78.75995 | 38928 ft | 488 kts | 179° |
| 2026-04-30 17:58 | 21.19230 | -78.74326 | 38927 ft | 480 kts | 179° |
| 2026-04-30 18:00 | 20.92763 | -78.72146 | 38940 ft | 475 kts | 180° |
| 2026-04-30 18:00 | 20.82820 | -78.71330 | 38518 ft | 480 kts | 180° |
| 2026-04-30 18:01 | 20.76133 | -78.70781 | 37552 ft | 476 kts | 180° |
| 2026-04-30 18:02 | 20.66137 | -78.69962 | 36058 ft | 483 kts | 179° |
| 2026-04-30 18:02 | 20.56155 | -78.69143 | 34332 ft | 474 kts | 179° |
| 2026-04-30 18:03 | 20.46185 | -78.68330 | 32574 ft | 485 kts | 178° |
| 2026-04-30 18:04 | 20.36112 | -78.67506 | 30895 ft | 475 kts | 176° |
| 2026-04-30 18:05 | 20.23065 | -78.66442 | 28688 ft | 470 kts | 176° |
| 2026-04-30 18:06 | 20.10101 | -78.65386 | 26512 ft | 456 kts | 176° |
| 2026-04-30 18:07 | 19.97574 | -78.63268 | 24353 ft | 455 kts | 157° |
| 2026-04-30 18:08 | 19.88984 | -78.59139 | 22752 ft | 443 kts | 155° |
| 2026-04-30 18:09 | 19.77884 | -78.53753 | 20609 ft | 436 kts | 155° |
| 2026-04-30 18:10 | 19.66907 | -78.48441 | 18481 ft | 425 kts | 155° |
| 2026-04-30 18:11 | 19.56311 | -78.43321 | 16376 ft | 407 kts | 154° |
| 2026-04-30 18:11 | 19.48690 | -78.39645 | 14811 ft | 395 kts | 154° |
| 2026-04-30 18:12 | 19.41249 | -78.36058 | 13239 ft | 383 kts | 154° |
| 2026-04-30 18:13 | 19.36430 | -78.33736 | 12212 ft | 376 kts | 155° |
| 2026-04-30 18:13 | 19.30238 | -78.30756 | 10771 ft | 352 kts | 155° |
| 2026-04-30 18:14 | 19.25256 | -78.28360 | 9583 ft | 326 kts | 156° |
| 2026-04-30 18:15 | 19.19585 | -78.25636 | 8120 ft | 306 kts | 155° |
| 2026-04-30 18:15 | 19.13718 | -78.22819 | 6996 ft | 302 kts | 154° |
| 2026-04-30 18:16 | 19.09877 | -78.20976 | 6984 ft | 302 kts | 154° |
| 2026-04-30 18:16 | 19.06040 | -78.19135 | 6982 ft | 302 kts | 155° |
| 2026-04-30 18:17 | 19.04111 | -78.18211 | 6981 ft | 302 kts | 155° |
| 2026-04-30 18:17 | 19.02192 | -78.17291 | 6983 ft | 302 kts | 155° |
| 2026-04-30 18:17 | 18.98355 | -78.15453 | 6981 ft | 301 kts | 155° |
| 2026-04-30 18:18 | 18.96454 | -78.14542 | 6984 ft | 301 kts | 155° |
| 2026-04-30 18:18 | 18.94518 | -78.13615 | 6983 ft | 301 kts | 155° |
| 2026-04-30 18:18 | 18.92622 | -78.12708 | 6982 ft | 301 kts | 155° |
| 2026-04-30 18:18 | 18.90702 | -78.11788 | 6980 ft | 302 kts | 154° |
| 2026-04-30 18:19 | 18.88778 | -78.10867 | 6980 ft | 302 kts | 154° |
| 2026-04-30 18:19 | 18.86843 | -78.09942 | 6799 ft | 305 kts | 154° |
| 2026-04-30 18:19 | 18.84894 | -78.09010 | 6444 ft | 304 kts | 154° |
| 2026-04-30 18:19 | 18.82983 | -78.08097 | 6088 ft | 302 kts | 154° |
| 2026-04-30 18:20 | 18.81064 | -78.07179 | 5730 ft | 300 kts | 154° |
| 2026-04-30 18:20 | 18.79155 | -78.06267 | 5369 ft | 298 kts | 154° |
| 2026-04-30 18:20 | 18.77273 | -78.05368 | 5009 ft | 297 kts | 154° |
| 2026-04-30 18:20 | 18.75409 | -78.04479 | 4592 ft | 289 kts | 154° |
| 2026-04-30 18:21 | 18.73603 | -78.03617 | 4228 ft | 277 kts | 153° |
| 2026-04-30 18:21 | 18.71861 | -78.02840 | 3865 ft | 270 kts | 163° |
| 2026-04-30 18:21 | 18.70005 | -78.02872 | 3482 ft | 271 kts | 199° |
| 2026-04-30 18:21 | 18.68459 | -78.04024 | 3106 ft | 277 kts | 232° |
| 2026-04-30 18:22 | 18.67426 | -78.05698 | 3023 ft | 278 kts | 237° |
| 2026-04-30 18:22 | 18.65024 | -78.08801 | 2973 ft | 261 kts | 223° |
| 2026-04-30 18:22 | 18.63693 | -78.10046 | 2975 ft | 249 kts | 217° |
| 2026-04-30 18:23 | 18.62314 | -78.11136 | 2983 ft | 243 kts | 213° |
| 2026-04-30 18:23 | 18.60907 | -78.12076 | 2982 ft | 236 kts | 208° |
| 2026-04-30 18:23 | 18.59457 | -78.12887 | 2978 ft | 231 kts | 204° |
| 2026-04-30 18:23 | 18.57971 | -78.13571 | 2983 ft | 231 kts | 199° |
| 2026-04-30 18:24 | 18.54895 | -78.14571 | 2982 ft | 229 kts | 190° |
| 2026-04-30 18:24 | 18.53322 | -78.14885 | 2976 ft | 224 kts | 186° |
| 2026-04-30 18:24 | 18.51793 | -78.15070 | 2978 ft | 218 kts | 182° |
| 2026-04-30 18:25 | 18.50289 | -78.15140 | 2978 ft | 216 kts | 178° |
| 2026-04-30 18:25 | 18.47281 | -78.14945 | 2980 ft | 215 kts | 169° |
| 2026-04-30 18:25 | 18.45802 | -78.14683 | 2981 ft | 214 kts | 165° |
| 2026-04-30 18:26 | 18.42988 | -78.13698 | 2971 ft | 209 kts | 137° |
| 2026-04-30 18:26 | 18.42187 | -78.12511 | 2965 ft | 194 kts | 106° |
| 2026-04-30 18:26 | 18.41964 | -78.11154 | 2973 ft | 186 kts | 87° |
| 2026-04-30 18:27 | 18.42754 | -78.08614 | 2975 ft | 183 kts | 65° |
| 2026-04-30 18:27 | 18.43294 | -78.07419 | 2962 ft | 182 kts | 65° |
| 2026-04-30 18:28 | 18.44352 | -78.05034 | 2527 ft | 167 kts | 66° |
| 2026-04-30 18:28 | 18.44821 | -78.03968 | 2329 ft | 153 kts | 66° |
| 2026-04-30 18:28 | 18.45686 | -78.02000 | 1954 ft | 145 kts | 66° |
| 2026-04-30 18:29 | 18.46109 | -78.01036 | 1769 ft | 142 kts | 67° |
| 2026-04-30 18:29 | 18.47327 | -77.98258 | 1222 ft | 137 kts | 67° |
| 2026-04-30 18:30 | 18.47986 | -77.96757 | 929 ft | 134 kts | 66° |
| 2026-04-30 18:30 | 18.48891 | -77.94694 | 522 ft | 131 kts | 65° |
| 2026-04-30 18:31 | 18.49278 | -77.93813 | 353 ft | 129 kts | 65° |
| 2026-04-30 18:31 | 18.50026 | -77.92099 | 37 ft | 121 kts | 65° |
| 2026-04-30 18:32 | 18.50400 | -77.91238 | 24 ft | 29 kts | 60° |
| 2026-04-30 18:32 | 18.50475 | -77.91081 | 25 ft | 19 kts | 66° |
| 2026-04-30 18:32 | 18.50526 | -77.90932 | 26 ft | 3 kts | 78° |
| 2026-04-30 18:33 | 18.50527 | -77.90927 | 26 ft | 0 kts | 81° |
| 2026-04-30 18:33 | 18.50526 | -77.90736 | 26 ft | 15 kts | 94° |
| 2026-04-30 18:33 | 18.50446 | -77.90731 | 26 ft | 19 kts | 239° |
| 2026-04-30 18:34 | 18.50376 | -77.90894 | 26 ft | 24 kts | 245° |
| 2026-04-30 18:34 | 18.50189 | -77.91318 | 26 ft | 25 kts | 226° |
| 2026-04-30 18:34 | 18.50056 | -77.91282 | 29 ft | 23 kts | 152° |
| 2026-04-30 18:35 | 18.49986 | -77.91247 | 31 ft | 11 kts | 156° |
| 2026-04-30 18:35 | 18.49897 | -77.91231 | 32 ft | 15 kts | 224° |
| 2026-04-30 18:35 | 18.49845 | -77.91368 | 32 ft | 24 kts | 262° |
| 2026-04-30 18:36 | 18.49802 | -77.91513 | 32 ft | 0 kts | 245° |